sensor_id;sensor_type;location;lat;lon;timestamp;pressure;altitude;pressure_sealevel;temperature;humidity
73842;BME280;62184;52.006;5.924;2023-04-01T00:00:35;98312.88;;;13.99;83.25
73842;BME280;62184;52.006;5.924;2023-04-01T00:03:02;98311.88;;;14.00;82.62
73842;BME280;62184;52.006;5.924;2023-04-01T00:05:28;98303.97;;;13.99;83.43
73842;BME280;62184;52.006;5.924;2023-04-01T00:07:55;98303.47;;;13.94;83.35
73842;BME280;62184;52.006;5.924;2023-04-01T00:10:21;98316.28;;;13.90;83.12
73842;BME280;62184;52.006;5.924;2023-04-01T00:12:47;98313.59;;;13.90;83.44
73842;BME280;62184;52.006;5.924;2023-04-01T00:15:14;98317.97;;;13.91;83.45
73842;BME280;62184;52.006;5.924;2023-04-01T00:17:43;98317.00;;;13.92;83.68
73842;BME280;62184;52.006;5.924;2023-04-01T00:20:11;98318.84;;;13.92;83.53
73842;BME280;62184;52.006;5.924;2023-04-01T00:22:38;98314.59;;;13.89;83.48
73842;BME280;62184;52.006;5.924;2023-04-01T00:25:05;98323.63;;;13.88;83.14
73842;BME280;62184;52.006;5.924;2023-04-01T00:27:32;98317.50;;;13.86;83.04
73842;BME280;62184;52.006;5.924;2023-04-01T00:29:59;98324.31;;;13.90;83.92
73842;BME280;62184;52.006;5.924;2023-04-01T00:32:25;98322.03;;;13.97;83.98
73842;BME280;62184;52.006;5.924;2023-04-01T00:34:54;98318.84;;;14.03;83.97
73842;BME280;62184;52.006;5.924;2023-04-01T00:37:20;98319.81;;;14.02;83.63
73842;BME280;62184;52.006;5.924;2023-04-01T00:39:47;98312.63;;;14.02;84.04
73842;BME280;62184;52.006;5.924;2023-04-01T00:42:13;98317.25;;;14.00;83.90
73842;BME280;62184;52.006;5.924;2023-04-01T00:44:41;98313.59;;;14.01;84.31
73842;BME280;62184;52.006;5.924;2023-04-01T00:47:08;98322.41;;;14.03;83.94
73842;BME280;62184;52.006;5.924;2023-04-01T00:49:37;98323.72;;;14.09;84.28
73842;BME280;62184;52.006;5.924;2023-04-01T00:52:11;98331.56;;;14.12;84.34
73842;BME280;62184;52.006;5.924;2023-04-01T00:54:43;98323.50;;;14.12;84.12
73842;BME280;62184;52.006;5.924;2023-04-01T00:57:17;98327.03;;;14.12;84.31
73842;BME280;62184;52.006;5.924;2023-04-01T00:59:50;98336.06;;;14.11;83.65
73842;BME280;62184;52.006;5.924;2023-04-01T01:02:19;98326.28;;;14.10;83.95
73842;BME280;62184;52.006;5.924;2023-04-01T01:04:46;98330.56;;;14.13;84.24
73842;BME280;62184;52.006;5.924;2023-04-01T01:07:20;98334.81;;;14.15;84.18
73842;BME280;62184;52.006;5.924;2023-04-01T01:10:02;98325.06;;;14.26;84.40
73842;BME280;62184;52.006;5.924;2023-04-01T01:12:40;98328.84;;;14.34;84.57
73842;BME280;62184;52.006;5.924;2023-04-01T01:15:17;98338.84;;;14.32;84.44
73842;BME280;62184;52.006;5.924;2023-04-01T01:17:52;98332.91;;;14.29;84.18
73842;BME280;62184;52.006;5.924;2023-04-01T01:20:47;98338.50;;;14.26;84.20
73842;BME280;62184;52.006;5.924;2023-04-01T01:23:47;98337.41;;;14.28;84.62
73842;BME280;62184;52.006;5.924;2023-04-01T01:26:40;98341.91;;;14.28;83.98
73842;BME280;62184;52.006;5.924;2023-04-01T01:30:04;98336.16;;;14.32;84.27
73842;BME280;62184;52.006;5.924;2023-04-01T01:32:55;98343.00;;;14.36;84.64
73842;BME280;62184;52.006;5.924;2023-04-01T01:35:38;98348.38;;;14.36;84.39
73842;BME280;62184;52.006;5.924;2023-04-01T01:38:12;98344.84;;;14.36;84.22
73842;BME280;62184;52.006;5.924;2023-04-01T01:40:43;98345.09;;;14.33;84.25
73842;BME280;62184;52.006;5.924;2023-04-01T01:43:17;98343.63;;;14.29;84.15
73842;BME280;62184;52.006;5.924;2023-04-01T01:45:50;98345.47;;;14.28;84.59
73842;BME280;62184;52.006;5.924;2023-04-01T01:48:22;98341.69;;;14.31;84.64
73842;BME280;62184;52.006;5.924;2023-04-01T01:50:53;98353.13;;;14.33;84.53
73842;BME280;62184;52.006;5.924;2023-04-01T01:53:20;98353.13;;;14.33;84.49
73842;BME280;62184;52.006;5.924;2023-04-01T01:55:47;98361.69;;;14.27;84.34
73842;BME280;62184;52.006;5.924;2023-04-01T01:58:17;98354.25;;;14.30;84.75
73842;BME280;62184;52.006;5.924;2023-04-01T02:00:52;98354.97;;;14.32;84.65
73842;BME280;62184;52.006;5.924;2023-04-01T02:03:23;98363.03;;;14.32;84.52
73842;BME280;62184;52.006;5.924;2023-04-01T02:05:56;98361.06;;;14.34;84.81
73842;BME280;62184;52.006;5.924;2023-04-01T02:08:28;98361.19;;;14.33;84.83
73842;BME280;62184;52.006;5.924;2023-04-01T02:11:02;98358.78;;;14.30;84.77
73842;BME280;62184;52.006;5.924;2023-04-01T02:13:37;98363.63;;;14.25;84.66
73842;BME280;62184;52.006;5.924;2023-04-01T02:16:12;98368.53;;;14.19;84.35
73842;BME280;62184;52.006;5.924;2023-04-01T02:18:44;98376.09;;;14.14;84.43
73842;BME280;62184;52.006;5.924;2023-04-01T02:21:17;98375.09;;;14.15;84.90
73842;BME280;62184;52.006;5.924;2023-04-01T02:23:47;98373.16;;;14.17;85.01
73842;BME280;62184;52.006;5.924;2023-04-01T02:26:16;98376.47;;;14.21;85.02
73842;BME280;62184;52.006;5.924;2023-04-01T02:28:45;98378.19;;;14.22;84.69
73842;BME280;62184;52.006;5.924;2023-04-01T02:31:14;98380.13;;;14.20;85.11
73842;BME280;62184;52.006;5.924;2023-04-01T02:33:41;98380.59;;;14.14;84.63
73842;BME280;62184;52.006;5.924;2023-04-01T02:36:10;98380.94;;;14.09;84.46
73842;BME280;62184;52.006;5.924;2023-04-01T02:38:42;98380.34;;;14.06;84.91
73842;BME280;62184;52.006;5.924;2023-04-01T02:41:10;98379.72;;;14.02;84.21
73842;BME280;62184;52.006;5.924;2023-04-01T02:43:37;98379.97;;;13.99;84.39
73842;BME280;62184;52.006;5.924;2023-04-01T02:46:04;98376.56;;;13.97;84.78
73842;BME280;62184;52.006;5.924;2023-04-01T02:48:30;98385.31;;;13.99;84.84
73842;BME280;62184;52.006;5.924;2023-04-01T02:50:57;98384.47;;;13.88;84.67
73842;BME280;62184;52.006;5.924;2023-04-01T02:53:23;98387.38;;;13.85;85.01
73842;BME280;62184;52.006;5.924;2023-04-01T02:55:52;98382.38;;;13.91;84.88
73842;BME280;62184;52.006;5.924;2023-04-01T02:58:19;98392.03;;;13.94;84.88
73842;BME280;62184;52.006;5.924;2023-04-01T03:00:45;98394.59;;;13.95;84.85
73842;BME280;62184;52.006;5.924;2023-04-01T03:03:12;98390.94;;;13.96;85.08
73842;BME280;62184;52.006;5.924;2023-04-01T03:05:38;98388.72;;;13.90;84.07
73842;BME280;62184;52.006;5.924;2023-04-01T03:08:05;98388.13;;;13.87;84.88
73842;BME280;62184;52.006;5.924;2023-04-01T03:10:32;98392.63;;;13.86;84.75
73842;BME280;62184;52.006;5.924;2023-04-01T03:13:01;98393.38;;;13.88;84.79
73842;BME280;62184;52.006;5.924;2023-04-01T03:15:27;98393.22;;;13.90;84.77
73842;BME280;62184;52.006;5.924;2023-04-01T03:17:54;98395.69;;;13.93;85.09
73842;BME280;62184;52.006;5.924;2023-04-01T03:20:20;98391.28;;;13.92;84.98
73842;BME280;62184;52.006;5.924;2023-04-01T03:22:47;98399.47;;;13.90;85.19
73842;BME280;62184;52.006;5.924;2023-04-01T03:25:13;98392.25;;;13.91;84.99
73842;BME280;62184;52.006;5.924;2023-04-01T03:27:40;98395.69;;;13.93;85.12
73842;BME280;62184;52.006;5.924;2023-04-01T03:30:09;98402.13;;;13.90;85.16
73842;BME280;62184;52.006;5.924;2023-04-01T03:32:36;98402.41;;;13.87;84.76
73842;BME280;62184;52.006;5.924;2023-04-01T03:35:03;98407.13;;;13.84;85.10
73842;BME280;62184;52.006;5.924;2023-04-01T03:37:31;98406.38;;;13.81;84.87
73842;BME280;62184;52.006;5.924;2023-04-01T03:39:57;98409.56;;;13.75;84.78
73842;BME280;62184;52.006;5.924;2023-04-01T03:42:23;98413.19;;;13.74;84.88
73842;BME280;62184;52.006;5.924;2023-04-01T03:44:50;98410.19;;;13.79;85.39
73842;BME280;62184;52.006;5.924;2023-04-01T03:47:19;98411.63;;;13.83;85.21
73842;BME280;62184;52.006;5.924;2023-04-01T03:49:45;98421.41;;;13.84;85.31
73842;BME280;62184;52.006;5.924;2023-04-01T03:52:12;98416.03;;;13.84;85.44
73842;BME280;62184;52.006;5.924;2023-04-01T03:54:38;98415.94;;;13.86;85.23
73842;BME280;62184;52.006;5.924;2023-04-01T03:57:05;98414.44;;;13.81;84.95
73842;BME280;62184;52.006;5.924;2023-04-01T03:59:31;98421.13;;;13.76;85.23
73842;BME280;62184;52.006;5.924;2023-04-01T04:01:58;98417.50;;;13.77;85.61
73842;BME280;62184;52.006;5.924;2023-04-01T04:04:27;98420.91;;;13.79;85.58
73842;BME280;62184;52.006;5.924;2023-04-01T04:06:55;98420.06;;;13.78;85.46
73842;BME280;62184;52.006;5.924;2023-04-01T04:09:21;98417.59;;;13.75;85.47
73842;BME280;62184;52.006;5.924;2023-04-01T04:11:48;98429.19;;;13.76;85.71
73842;BME280;62184;52.006;5.924;2023-04-01T04:14:15;98422.38;;;13.72;85.24
73842;BME280;62184;52.006;5.924;2023-04-01T04:16:41;98434.66;;;13.74;85.67
73842;BME280;62184;52.006;5.924;2023-04-01T04:19:08;98432.63;;;13.78;85.91
73842;BME280;62184;52.006;5.924;2023-04-01T04:21:37;98425.41;;;13.78;85.96
73842;BME280;62184;52.006;5.924;2023-04-01T04:24:04;98438.72;;;13.80;85.89
73842;BME280;62184;52.006;5.924;2023-04-01T04:26:31;98426.63;;;13.74;86.22
73842;BME280;62184;52.006;5.924;2023-04-01T04:28:57;98432.47;;;13.68;86.25
73842;BME280;62184;52.006;5.924;2023-04-01T04:31:25;98438.19;;;13.64;86.29
73842;BME280;62184;52.006;5.924;2023-04-01T04:33:52;98434.00;;;13.60;86.33
73842;BME280;62184;52.006;5.924;2023-04-01T04:36:20;98445.47;;;13.62;86.44
73842;BME280;62184;52.006;5.924;2023-04-01T04:38:49;98439.16;;;13.63;86.58
73842;BME280;62184;52.006;5.924;2023-04-01T04:41:17;98433.78;;;13.63;86.46
73842;BME280;62184;52.006;5.924;2023-04-01T04:43:49;98439.25;;;13.61;86.73
73842;BME280;62184;52.006;5.924;2023-04-01T04:46:17;98443.78;;;13.61;86.77
73842;BME280;62184;52.006;5.924;2023-04-01T04:48:44;98441.72;;;13.64;86.69
73842;BME280;62184;52.006;5.924;2023-04-01T04:51:13;98444.03;;;13.69;87.00
73842;BME280;62184;52.006;5.924;2023-04-01T04:53:40;98449.19;;;13.72;86.75
73842;BME280;62184;52.006;5.924;2023-04-01T04:56:10;98445.47;;;13.62;86.92
73842;BME280;62184;52.006;5.924;2023-04-01T04:58:37;98453.00;;;13.57;86.63
73842;BME280;62184;52.006;5.924;2023-04-01T05:01:08;98453.00;;;13.57;86.97
73842;BME280;62184;52.006;5.924;2023-04-01T05:03:36;98459.75;;;13.62;87.31
73842;BME280;62184;52.006;5.924;2023-04-01T05:06:04;98462.59;;;13.72;87.41
73842;BME280;62184;52.006;5.924;2023-04-01T05:08:31;98461.59;;;13.73;87.43
73842;BME280;62184;52.006;5.924;2023-04-01T05:10:58;98466.00;;;13.74;87.04
73842;BME280;62184;52.006;5.924;2023-04-01T05:13:27;98466.84;;;13.74;87.15
73842;BME280;62184;52.006;5.924;2023-04-01T05:15:54;98465.66;;;13.78;87.27
73842;BME280;62184;52.006;5.924;2023-04-01T05:18:21;98484.19;;;13.81;87.67
73842;BME280;62184;52.006;5.924;2023-04-01T05:20:48;98478.50;;;13.86;87.79
73842;BME280;62184;52.006;5.924;2023-04-01T05:23:16;98480.72;;;13.92;88.00
73842;BME280;62184;52.006;5.924;2023-04-01T05:25:43;98490.97;;;13.98;87.79
73842;BME280;62184;52.006;5.924;2023-04-01T05:28:10;98487.69;;;13.95;87.80
73842;BME280;62184;52.006;5.924;2023-04-01T05:30:39;98486.94;;;13.93;87.90
73842;BME280;62184;52.006;5.924;2023-04-01T05:33:06;98496.59;;;13.95;87.88
73842;BME280;62184;52.006;5.924;2023-04-01T05:35:32;98492.06;;;13.96;88.25
73842;BME280;62184;52.006;5.924;2023-04-01T05:37:59;98491.97;;;13.97;88.24
73842;BME280;62184;52.006;5.924;2023-04-01T05:40:25;98493.53;;;14.00;88.22
73842;BME280;62184;52.006;5.924;2023-04-01T05:42:53;98509.53;;;14.01;88.11
73842;BME280;62184;52.006;5.924;2023-04-01T05:45:19;98510.03;;;14.06;88.03
73842;BME280;62184;52.006;5.924;2023-04-01T05:47:48;98510.28;;;14.03;88.03
73842;BME280;62184;52.006;5.924;2023-04-01T05:50:15;98512.44;;;13.98;88.25
73842;BME280;62184;52.006;5.924;2023-04-01T05:52:41;98519.53;;;13.99;88.41
73842;BME280;62184;52.006;5.924;2023-04-01T05:55:08;98522.94;;;14.01;88.45
73842;BME280;62184;52.006;5.924;2023-04-01T05:57:35;98521.00;;;14.03;88.23
73842;BME280;62184;52.006;5.924;2023-04-01T06:00:03;98534.31;;;14.05;88.38
73842;BME280;62184;52.006;5.924;2023-04-01T06:02:30;98533.09;;;14.09;88.26
73842;BME280;62184;52.006;5.924;2023-04-01T06:05:09;98535.69;;;14.10;88.23
73842;BME280;62184;52.006;5.924;2023-04-01T06:07:40;98540.56;;;14.05;88.23
73842;BME280;62184;52.006;5.924;2023-04-01T06:10:15;98545.06;;;14.05;88.05
73842;BME280;62184;52.006;5.924;2023-04-01T06:12:51;98548.81;;;14.02;88.15
73842;BME280;62184;52.006;5.924;2023-04-01T06:15:34;98556.78;;;14.04;88.39
73842;BME280;62184;52.006;5.924;2023-04-01T06:21:24;98564.25;;;14.11;88.37
73842;BME280;62184;52.006;5.924;2023-04-01T06:24:24;98570.09;;;14.16;88.45
73842;BME280;62184;52.006;5.924;2023-04-01T06:27:09;98567.59;;;14.26;88.61
73842;BME280;62184;52.006;5.924;2023-04-01T06:30:04;98572.94;;;14.26;88.54
73842;BME280;62184;52.006;5.924;2023-04-01T06:32:54;98576.97;;;14.21;88.48
73842;BME280;62184;52.006;5.924;2023-04-01T06:35:58;98590.41;;;14.21;88.65
73842;BME280;62184;52.006;5.924;2023-04-01T06:38:59;98583.69;;;14.26;88.49
73842;BME280;62184;52.006;5.924;2023-04-01T06:45:08;98599.75;;;14.39;88.49
73842;BME280;62184;52.006;5.924;2023-04-01T06:47:55;98599.28;;;14.45;88.87
73842;BME280;62184;52.006;5.924;2023-04-01T06:50:37;98607.59;;;14.53;88.95
73842;BME280;62184;52.006;5.924;2023-04-01T06:53:19;98611.56;;;14.60;88.89
73842;BME280;62184;52.006;5.924;2023-04-01T06:55:55;98614.25;;;14.60;88.96
73842;BME280;62184;52.006;5.924;2023-04-01T06:58:30;98618.88;;;14.58;88.76
73842;BME280;62184;52.006;5.924;2023-04-01T07:01:04;98619.63;;;14.60;88.97
73842;BME280;62184;52.006;5.924;2023-04-01T07:03:38;98626.59;;;14.63;88.69
73842;BME280;62184;52.006;5.924;2023-04-01T07:06:13;98629.38;;;14.61;88.63
73842;BME280;62184;52.006;5.924;2023-04-01T07:08:45;98628.16;;;14.65;88.94
73842;BME280;62184;52.006;5.924;2023-04-01T07:11:22;98631.00;;;14.75;88.95
73842;BME280;62184;52.006;5.924;2023-04-01T07:13:54;98633.25;;;14.81;88.95
73842;BME280;62184;52.006;5.924;2023-04-01T07:16:30;98647.06;;;14.87;89.27
73842;BME280;62184;52.006;5.924;2023-04-01T07:19:03;98644.63;;;14.96;89.09
73842;BME280;62184;52.006;5.924;2023-04-01T07:21:41;98655.53;;;15.05;88.97
73842;BME280;62184;52.006;5.924;2023-04-01T07:24:17;98650.03;;;15.07;88.98
73842;BME280;62184;52.006;5.924;2023-04-01T07:26:54;98653.44;;;15.09;89.10
73842;BME280;62184;52.006;5.924;2023-04-01T07:29:23;98661.16;;;15.13;89.10
73842;BME280;62184;52.006;5.924;2023-04-01T07:32:11;98666.41;;;15.15;89.18
73842;BME280;62184;52.006;5.924;2023-04-01T07:34:55;98668.84;;;15.18;89.13
73842;BME280;62184;52.006;5.924;2023-04-01T07:37:33;98671.19;;;15.22;88.99
73842;BME280;62184;52.006;5.924;2023-04-01T07:40:17;98678.41;;;15.22;89.05
73842;BME280;62184;52.006;5.924;2023-04-01T07:43:09;98684.38;;;15.25;88.97
73842;BME280;62184;52.006;5.924;2023-04-01T07:46:02;98681.22;;;15.31;88.97
73842;BME280;62184;52.006;5.924;2023-04-01T07:48:41;98686.22;;;15.36;89.33
73842;BME280;62184;52.006;5.924;2023-04-01T07:51:21;98689.06;;;15.46;89.38
73842;BME280;62184;52.006;5.924;2023-04-01T07:54:00;98688.34;;;15.55;89.37
73842;BME280;62184;52.006;5.924;2023-04-01T07:56:40;98686.91;;;15.62;89.39
73842;BME280;62184;52.006;5.924;2023-04-01T07:59:20;98698.03;;;15.68;89.12
73842;BME280;62184;52.006;5.924;2023-04-01T08:01:59;98703.06;;;15.73;89.04
73842;BME280;62184;52.006;5.924;2023-04-01T08:04:41;98703.16;;;15.72;88.79
73842;BME280;62184;52.006;5.924;2023-04-01T08:07:22;98704.50;;;15.66;89.08
73842;BME280;62184;52.006;5.924;2023-04-01T08:09:56;98718.69;;;15.68;89.19
73842;BME280;62184;52.006;5.924;2023-04-01T08:12:37;98723.47;;;15.76;89.34
73842;BME280;62184;52.006;5.924;2023-04-01T08:15:21;98722.34;;;15.67;88.82
73842;BME280;62184;52.006;5.924;2023-04-01T08:18:01;98727.16;;;15.63;89.01
73842;BME280;62184;52.006;5.924;2023-04-01T08:20:39;98733.38;;;15.64;89.21
73842;BME280;62184;52.006;5.924;2023-04-01T08:23:13;98735.69;;;15.68;89.42
73842;BME280;62184;52.006;5.924;2023-04-01T08:25:48;98739.88;;;15.73;89.05
73842;BME280;62184;52.006;5.924;2023-04-01T08:28:23;98744.28;;;15.74;89.34
73842;BME280;62184;52.006;5.924;2023-04-01T08:31:01;98745.25;;;15.84;89.32
73842;BME280;62184;52.006;5.924;2023-04-01T08:33:32;98751.72;;;15.92;89.52
73842;BME280;62184;52.006;5.924;2023-04-01T08:36:04;98746.00;;;15.97;89.38
73842;BME280;62184;52.006;5.924;2023-04-01T08:38:38;98756.00;;;15.95;89.53
73842;BME280;62184;52.006;5.924;2023-04-01T08:41:21;98759.81;;;15.92;89.46
73842;BME280;62184;52.006;5.924;2023-04-01T08:44:21;98758.47;;;15.98;89.36
73842;BME280;62184;52.006;5.924;2023-04-01T08:47:27;98770.69;;;15.91;89.47
73842;BME280;62184;52.006;5.924;2023-04-01T08:50:23;98770.94;;;15.88;89.09
73842;BME280;62184;52.006;5.924;2023-04-01T08:53:03;98777.31;;;15.87;89.16
73842;BME280;62184;52.006;5.924;2023-04-01T08:55:40;98778.75;;;15.91;89.29
73842;BME280;62184;52.006;5.924;2023-04-01T08:58:44;98781.00;;;15.97;89.65
73842;BME280;62184;52.006;5.924;2023-04-01T09:01:31;98787.59;;;16.04;89.41
73842;BME280;62184;52.006;5.924;2023-04-01T09:04:32;98791.03;;;15.95;89.35
73842;BME280;62184;52.006;5.924;2023-04-01T09:07:29;98789.78;;;15.88;89.09
73842;BME280;62184;52.006;5.924;2023-04-01T09:10:21;98790.41;;;15.91;89.26
73842;BME280;62184;52.006;5.924;2023-04-01T09:13:14;98799.31;;;15.92;89.11
73842;BME280;62184;52.006;5.924;2023-04-01T09:19:14;98806.31;;;15.94;89.67
73842;BME280;62184;52.006;5.924;2023-04-01T09:22:09;98807.91;;;15.97;89.41
73842;BME280;62184;52.006;5.924;2023-04-01T09:25:06;98807.53;;;16.01;89.44
73842;BME280;62184;52.006;5.924;2023-04-01T09:27:57;98817.97;;;16.06;89.37
73842;BME280;62184;52.006;5.924;2023-04-01T09:31:03;98826.75;;;16.08;89.52
73842;BME280;62184;52.006;5.924;2023-04-01T09:34:01;98830.19;;;16.10;89.35
73842;BME280;62184;52.006;5.924;2023-04-01T09:36:58;98829.72;;;16.05;88.79
73842;BME280;62184;52.006;5.924;2023-04-01T09:39:56;98831.44;;;16.06;89.30
73842;BME280;62184;52.006;5.924;2023-04-01T09:42:44;98834.13;;;16.06;89.12
73842;BME280;62184;52.006;5.924;2023-04-01T09:45:32;98838.75;;;15.93;89.07
73842;BME280;62184;52.006;5.924;2023-04-01T09:48:24;98849.09;;;15.75;88.97
73842;BME280;62184;52.006;5.924;2023-04-01T09:51:17;98856.81;;;15.68;88.78
73842;BME280;62184;52.006;5.924;2023-04-01T09:54:06;98861.28;;;15.57;89.67
73842;BME280;62184;52.006;5.924;2023-04-01T10:00:15;98867.09;;;15.40;88.63
73842;BME280;62184;52.006;5.924;2023-04-01T10:03:10;98867.44;;;15.35;88.83
73842;BME280;62184;52.006;5.924;2023-04-01T10:13:03;98886.22;;;15.24;89.39
73842;BME280;62184;52.006;5.924;2023-04-01T10:16:07;98888.69;;;15.27;89.11
73842;BME280;62184;52.006;5.924;2023-04-01T10:19:00;98889.19;;;15.32;89.34
73842;BME280;62184;52.006;5.924;2023-04-01T10:25:34;98901.50;;;15.47;89.67
73842;BME280;62184;52.006;5.924;2023-04-01T10:32:00;98901.81;;;15.66;89.94
73842;BME280;62184;52.006;5.924;2023-04-01T10:48:48;98903.31;;;16.61;89.82
73842;BME280;62184;52.006;5.924;2023-04-01T10:51:55;98913.88;;;16.64;89.54
73842;BME280;62184;52.006;5.924;2023-04-01T10:54:47;98914.81;;;16.52;89.27
73842;BME280;62184;52.006;5.924;2023-04-01T10:57:46;98911.75;;;16.45;89.31
73842;BME280;62184;52.006;5.924;2023-04-01T11:01:18;98914.44;;;16.34;89.47
73842;BME280;62184;52.006;5.924;2023-04-01T11:11:07;98923.72;;;15.97;89.63
73842;BME280;62184;52.006;5.924;2023-04-01T11:14:18;98926.28;;;16.10;89.69
73842;BME280;62184;52.006;5.924;2023-04-01T11:17:30;98930.13;;;16.29;89.65
73842;BME280;62184;52.006;5.924;2023-04-01T11:20:52;98934.91;;;16.37;89.37
73842;BME280;62184;52.006;5.924;2023-04-01T11:23:50;98935.75;;;16.15;89.17
73842;BME280;62184;52.006;5.924;2023-04-01T11:26:30;98933.34;;;15.99;88.97
73842;BME280;62184;52.006;5.924;2023-04-01T11:29:16;98941.44;;;15.88;88.76
73842;BME280;62184;52.006;5.924;2023-04-01T11:32:02;98943.84;;;15.80;89.08
73842;BME280;62184;52.006;5.924;2023-04-01T11:34:57;98943.91;;;15.67;89.26
73842;BME280;62184;52.006;5.924;2023-04-01T11:37:48;98956.88;;;15.62;89.14
73842;BME280;62184;52.006;5.924;2023-04-01T11:40:28;98956.09;;;15.60;89.03
73842;BME280;62184;52.006;5.924;2023-04-01T11:43:09;98954.19;;;15.62;88.93
73842;BME280;62184;52.006;5.924;2023-04-01T11:45:47;98963.03;;;15.52;89.16
73842;BME280;62184;52.006;5.924;2023-04-01T11:48:37;98961.47;;;15.37;88.94
73842;BME280;62184;52.006;5.924;2023-04-01T11:51:29;98964.63;;;15.30;89.26
73842;BME280;62184;52.006;5.924;2023-04-01T11:54:35;98966.06;;;15.23;89.23
73842;BME280;62184;52.006;5.924;2023-04-01T11:57:36;98987.69;;;15.22;89.59
73842;BME280;62184;52.006;5.924;2023-04-01T12:00:31;98998.34;;;15.23;89.37
73842;BME280;62184;52.006;5.924;2023-04-01T12:03:21;99004.16;;;15.17;89.33
73842;BME280;62184;52.006;5.924;2023-04-01T12:06:08;99008.78;;;15.15;89.68
73842;BME280;62184;52.006;5.924;2023-04-01T12:08:46;99009.22;;;15.09;89.26
73842;BME280;62184;52.006;5.924;2023-04-01T12:11:32;99013.63;;;15.10;89.37
73842;BME280;62184;52.006;5.924;2023-04-01T12:14:13;99019.88;;;15.11;89.50
73842;BME280;62184;52.006;5.924;2023-04-01T12:16:55;99020.53;;;15.14;89.40
73842;BME280;62184;52.006;5.924;2023-04-01T12:19:39;99023.22;;;15.14;89.43
73842;BME280;62184;52.006;5.924;2023-04-01T12:22:25;99028.69;;;15.13;89.89
73842;BME280;62184;52.006;5.924;2023-04-01T12:25:17;99030.41;;;15.14;89.99
73842;BME280;62184;52.006;5.924;2023-04-01T12:28:15;99031.91;;;15.18;90.02
73842;BME280;62184;52.006;5.924;2023-04-01T12:30:58;99039.75;;;15.21;90.19
73842;BME280;62184;52.006;5.924;2023-04-01T12:33:52;99040.28;;;15.26;89.87
73842;BME280;62184;52.006;5.924;2023-04-01T12:36:42;99049.59;;;15.33;90.08
73842;BME280;62184;52.006;5.924;2023-04-01T12:39:32;99057.25;;;15.39;90.18
73842;BME280;62184;52.006;5.924;2023-04-01T12:42:18;99056.44;;;15.50;90.46
73842;BME280;62184;52.006;5.924;2023-04-01T12:45:11;99058.81;;;15.54;89.86
73842;BME280;62184;52.006;5.924;2023-04-01T12:48:11;99062.88;;;15.60;90.11
73842;BME280;62184;52.006;5.924;2023-04-01T12:51:13;99067.22;;;15.62;90.11
73842;BME280;62184;52.006;5.924;2023-04-01T12:54:32;99075.47;;;15.72;89.99
73842;BME280;62184;52.006;5.924;2023-04-01T12:57:26;99073.06;;;15.80;90.33
73842;BME280;62184;52.006;5.924;2023-04-01T13:00:30;99076.38;;;15.84;90.09
73842;BME280;62184;52.006;5.924;2023-04-01T13:03:19;99086.63;;;15.79;90.06
73842;BME280;62184;52.006;5.924;2023-04-01T13:06:39;99079.06;;;15.84;90.08
73842;BME280;62184;52.006;5.924;2023-04-01T13:09:24;99091.84;;;15.93;89.94
73842;BME280;62184;52.006;5.924;2023-04-01T13:12:22;99097.59;;;15.88;89.87
73842;BME280;62184;52.006;5.924;2023-04-01T13:15:13;99103.16;;;15.98;90.50
73842;BME280;62184;52.006;5.924;2023-04-01T13:17:54;99091.97;;;16.15;90.39
73842;BME280;62184;52.006;5.924;2023-04-01T13:20:41;99105.56;;;16.25;90.04
73842;BME280;62184;52.006;5.924;2023-04-01T13:23:24;99105.75;;;16.34;90.36
73842;BME280;62184;52.006;5.924;2023-04-01T13:26:06;99118.88;;;16.39;90.47
73842;BME280;62184;52.006;5.924;2023-04-01T13:28:43;99117.78;;;16.41;90.31
73842;BME280;62184;52.006;5.924;2023-04-01T13:31:27;99132.25;;;16.40;90.14
73842;BME280;62184;52.006;5.924;2023-04-01T13:34:16;99128.25;;;16.22;89.54
73842;BME280;62184;52.006;5.924;2023-04-01T13:37:02;99134.41;;;15.88;88.87
73842;BME280;62184;52.006;5.924;2023-04-01T13:40:04;99142.13;;;15.56;89.40
73842;BME280;62184;52.006;5.924;2023-04-01T13:42:50;99147.75;;;15.40;89.08
73842;BME280;62184;52.006;5.924;2023-04-01T13:45:24;99151.84;;;15.33;89.93
73842;BME280;62184;52.006;5.924;2023-04-01T13:48:15;99152.78;;;15.32;90.01
73842;BME280;62184;52.006;5.924;2023-04-01T13:51:08;99159.03;;;15.32;89.91
73842;BME280;62184;52.006;5.924;2023-04-01T13:54:14;99160.25;;;15.28;90.07
73842;BME280;62184;52.006;5.924;2023-04-01T13:57:12;99164.66;;;15.29;90.03
73842;BME280;62184;52.006;5.924;2023-04-01T14:00:00;99163.69;;;15.30;90.22
73842;BME280;62184;52.006;5.924;2023-04-01T14:02:49;99169.81;;;15.32;89.94
73842;BME280;62184;52.006;5.924;2023-04-01T14:05:47;99174.78;;;15.39;90.29
73842;BME280;62184;52.006;5.924;2023-04-01T14:08:36;99176.34;;;15.41;90.05
73842;BME280;62184;52.006;5.924;2023-04-01T14:11:17;99178.94;;;15.43;90.22
73842;BME280;62184;52.006;5.924;2023-04-01T14:13:59;99192.19;;;15.46;90.04
73842;BME280;62184;52.006;5.924;2023-04-01T14:17:01;99190.03;;;15.51;90.28
73842;BME280;62184;52.006;5.924;2023-04-01T14:19:50;99198.75;;;15.54;90.39
73842;BME280;62184;52.006;5.924;2023-04-01T14:22:34;99199.97;;;15.63;90.44
73842;BME280;62184;52.006;5.924;2023-04-01T14:25:32;99207.94;;;15.64;90.13
73842;BME280;62184;52.006;5.924;2023-04-01T14:28:19;99208.78;;;15.65;89.81
73842;BME280;62184;52.006;5.924;2023-04-01T14:31:16;99212.66;;;15.61;90.13
73842;BME280;62184;52.006;5.924;2023-04-01T14:34:00;99212.31;;;15.53;89.90
73842;BME280;62184;52.006;5.924;2023-04-01T14:36:50;99223.41;;;15.48;90.14
73842;BME280;62184;52.006;5.924;2023-04-01T14:39:43;99215.44;;;15.47;90.33
73842;BME280;62184;52.006;5.924;2023-04-01T14:42:48;99221.34;;;15.52;90.53
73842;BME280;62184;52.006;5.924;2023-04-01T14:48:58;99231.16;;;15.65;90.45
73842;BME280;62184;52.006;5.924;2023-04-01T14:51:31;99234.84;;;15.64;90.62
73842;BME280;62184;52.006;5.924;2023-04-01T14:54:04;99247.09;;;15.68;90.63
73842;BME280;62184;52.006;5.924;2023-04-01T14:56:39;99235.03;;;15.61;91.05